Boca do Monte, Brazil
Current Conditions -  °F | °C
As of 6:00 AM on Wednesday 22 Oct 2014 (Local Time) from SBSM Reporting Station
Clear Clear  
Wind Chill: 54°   Ceiling: Unl
Heat Index: 54°   Visibility: 6mi
Dew Point: 52°   Wind: 1mph
Humidity: 94%   Direction: 10°N
Pressure: 30.09"   Gusts: NA
Location:  29.64°S, 53.93°W
Report Text: SBSM 220800Z 01001KT CAVOK 12/11 Q1019
Loading
Personal Weather Stations






























Interactive Weather Map
Tropical Storm Tracking
New forecast layout! Learn more

10-Day Weather Forecast

Advertisements
Track Severe Weather on mobile